Time;durP1;ratioP1;P1;durP2;ratioP2;P2;SDS_P1;SDS_P2;PMS_P1;PMS_P2;Temp;Humidity;BMP_temperature;BMP_pressure;BME280_temperature;BME280_humidity;BME280_pressure;Samples;Min_cycle;Max_cycle;Signal;HPM_P1;HPM_P2
2023/08/05 00:00:53;;;;;;;16.17;14.77;;;18.20;99.90;;;;;;5023410;28;20946;-50
2023/08/05 00:03:19;;;;;;;15.63;14.53;;;18.20;99.90;;;;;;5040016;28;20205;-57
2023/08/05 00:05:44;;;;;;;16.17;15.07;;;18.10;99.90;;;;;;5041764;28;20181;-53
2023/08/05 00:08:10;;;;;;;16.17;15.10;;;18.20;99.90;;;;;;5041098;28;20182;-55
2023/08/05 00:10:36;;;;;;;16.03;15.03;;;18.20;99.90;;;;;;5021982;28;20252;-56
2023/08/05 00:13:02;;;;;;;15.73;14.73;;;18.20;99.90;;;;;;5042023;28;20663;-52
2023/08/05 00:15:27;;;;;;;15.73;14.43;;;18.10;99.90;;;;;;5040844;28;20557;-56
2023/08/05 00:17:54;;;;;;;15.73;14.80;;;18.10;99.90;;;;;;5038594;28;20272;-58
2023/08/05 00:20:20;;;;;;;15.90;14.90;;;18.10;99.90;;;;;;5018887;28;20274;-57
2023/08/05 00:22:46;;;;;;;16.80;15.53;;;18.00;99.90;;;;;;5041668;28;20474;-55
2023/08/05 00:25:12;;;;;;;16.47;15.37;;;18.00;99.90;;;;;;5040651;28;20260;-57
2023/08/05 00:27:37;;;;;;;16.37;15.23;;;18.00;99.90;;;;;;5041646;28;20185;-55
2023/08/05 00:30:03;;;;;;;15.33;14.37;;;17.90;99.90;;;;;;5039414;28;20428;-51
2023/08/05 00:32:30;;;;;;;15.33;14.33;;;17.90;99.90;;;;;;5041310;28;20275;-52
2023/08/05 00:34:56;;;;;;;15.43;14.33;;;17.90;99.90;;;;;;5039394;28;20587;-56
2023/08/05 00:37:21;;;;;;;15.43;14.43;;;17.90;99.90;;;;;;5041537;28;20837;-58
2023/08/05 00:39:47;;;;;;;15.13;14.13;;;17.90;99.90;;;;;;5040093;28;20432;-55
2023/08/05 00:42:18;;;;;;;15.20;14.17;;;17.90;99.90;;;;;;5041659;28;20205;-50
2023/08/05 00:44:44;;;;;;;15.43;14.43;;;17.80;99.90;;;;;;5041357;28;20200;-56
2023/08/05 00:47:09;;;;;;;15.50;14.47;;;17.80;99.90;;;;;;5041236;28;20908;-56
2023/08/05 00:49:35;;;;;;;15.67;14.57;;;17.80;99.90;;;;;;5022137;28;20428;-52
2023/08/05 00:52:01;;;;;;;14.93;13.90;;;17.70;99.90;;;;;;5039739;28;20647;-50
2023/08/05 00:54:27;;;;;;;15.07;13.77;;;17.70;99.90;;;;;;5040235;28;20813;-55
2023/08/05 00:56:53;;;;;;;15.90;14.80;;;17.70;99.90;;;;;;5039918;28;20220;-53
2023/08/05 00:59:19;;;;;;;15.67;14.50;;;17.60;99.90;;;;;;5040911;28;20193;-56
2023/08/05 01:01:45;;;;;;;16.43;15.23;;;17.60;99.90;;;;;;5013952;28;20700;-56
2023/08/05 01:04:11;;;;;;;15.70;14.60;;;17.50;99.90;;;;;;5037727;28;20471;-55
2023/08/05 01:06:37;;;;;;;15.20;14.17;;;17.50;99.90;;;;;;5021742;28;20544;-54
2023/08/05 01:09:03;;;;;;;15.97;14.60;;;17.50;99.90;;;;;;5039374;28;20193;-54
2023/08/05 01:11:29;;;;;;;14.67;13.77;;;17.40;99.90;;;;;;5040433;28;20440;-53
2023/08/05 01:13:55;;;;;;;15.70;14.70;;;17.40;99.90;;;;;;5039214;28;20283;-56
2023/08/05 01:16:20;;;;;;;16.40;15.20;;;17.40;99.90;;;;;;5040596;28;21103;-57
2023/08/05 01:18:47;;;;;;;14.60;13.60;;;17.40;99.90;;;;;;5039946;28;20194;-53
2023/08/05 01:21:19;;;;;;;15.87;14.67;;;17.40;99.90;;;;;;5038994;28;20597;-55
2023/08/05 01:24:34;;;;;;;15.30;14.20;;;17.40;99.90;;;;;;5039238;28;20568;-57
2023/08/05 01:27:01;;;;;;;15.10;14.10;;;17.40;99.90;;;;;;5019855;28;20448;-57
2023/08/05 01:29:26;;;;;;;14.93;13.83;;;17.30;99.90;;;;;;5039917;28;20489;-54
2023/08/05 01:31:54;;;;;;;14.70;13.70;;;17.30;99.90;;;;;;5038897;28;20511;-57
2023/08/05 01:34:19;;;;;;;14.87;13.60;;;17.30;99.90;;;;;;5039757;28;20201;-56
2023/08/05 01:36:45;;;;;;;14.90;13.90;;;17.30;99.90;;;;;;5039675;28;20767;-55
2023/08/05 01:39:10;;;;;;;14.93;13.93;;;17.20;99.90;;;;;;5039647;28;20277;-55
2023/08/05 01:41:36;;;;;;;15.10;14.10;;;17.20;99.90;;;;;;5039262;28;20555;-57
2023/08/05 01:44:02;;;;;;;14.73;13.63;;;17.20;99.90;;;;;;5038905;28;20290;-54
2023/08/05 01:46:27;;;;;;;14.70;13.60;;;17.20;99.90;;;;;;5037855;28;20292;-56
2023/08/05 01:48:53;;;;;;;14.53;13.50;;;17.20;99.90;;;;;;5038492;28;20239;-55
2023/08/05 01:51:18;;;;;;;14.50;13.40;;;17.10;99.90;;;;;;5039074;28;20192;-56
2023/08/05 01:53:44;;;;;;;14.23;13.33;;;17.10;99.90;;;;;;5040281;28;21124;-54
2023/08/05 01:56:10;;;;;;;14.40;13.40;;;17.10;99.90;;;;;;5039277;28;20285;-53
2023/08/05 01:58:35;;;;;;;14.20;13.20;;;17.10;99.90;;;;;;5039055;28;20190;-55
2023/08/05 02:01:01;;;;;;;14.73;13.63;;;17.10;99.90;;;;;;5039347;28;20181;-54
2023/08/05 02:03:26;;;;;;;14.60;13.67;;;17.10;99.90;;;;;;5039241;28;20220;-55
2023/08/05 02:05:52;;;;;;;15.27;14.07;;;17.10;99.90;;;;;;5039804;28;20281;-56
2023/08/05 02:08:17;;;;;;;15.13;14.03;;;17.10;99.90;;;;;;5038808;28;20205;-46
2023/08/05 02:10:43;;;;;;;14.40;13.40;;;17.10;99.90;;;;;;5039443;28;20273;-58
2023/08/05 02:13:09;;;;;;;14.27;13.37;;;17.10;99.90;;;;;;5038713;28;20675;-58
2023/08/05 02:15:34;;;;;;;15.07;13.70;;;17.10;99.90;;;;;;5039419;28;20182;-56
2023/08/05 02:18:00;;;;;;;14.70;13.60;;;17.10;99.90;;;;;;5039389;28;20189;-55
2023/08/05 02:20:26;;;;;;;14.67;13.60;;;17.10;99.90;;;;;;5043022;28;20789;-52
2023/08/05 02:22:51;;;;;;;14.60;13.60;;;17.10;99.90;;;;;;5043470;28;20216;-54
2023/08/05 02:25:17;;;;;;;13.90;13.00;;;17.10;99.90;;;;;;5042334;28;20657;-57
2023/08/05 02:27:42;;;;;;;14.33;13.27;;;17.10;99.90;;;;;;5043219;28;21320;-54
2023/08/05 02:30:08;;;;;;;13.53;12.63;;;17.10;99.90;;;;;;5043406;28;20189;-56
2023/08/05 02:32:34;;;;;;;14.20;13.13;;;17.10;99.90;;;;;;5042554;28;20273;-58
2023/08/05 02:34:59;;;;;;;15.00;13.90;;;17.10;99.90;;;;;;5043410;28;20190;-55
2023/08/05 02:37:25;;;;;;;14.43;13.40;;;17.10;99.90;;;;;;5043242;28;20186;-51
2023/08/05 02:39:51;;;;;;;14.90;13.80;;;17.10;99.90;;;;;;5058803;28;20644;-54
2023/08/05 02:42:16;;;;;;;14.80;13.70;;;17.10;99.90;;;;;;5043100;28;20178;-54
2023/08/05 02:44:42;;;;;;;14.97;13.87;;;17.00;99.90;;;;;;5042339;28;20241;-54
2023/08/05 02:47:08;;;;;;;14.63;13.73;;;17.00;99.90;;;;;;5042374;28;20190;-57
2023/08/05 02:49:33;;;;;;;14.70;13.70;;;17.00;99.90;;;;;;5042939;28;20568;-54
2023/08/05 02:51:59;;;;;;;14.80;13.80;;;17.00;99.90;;;;;;5043473;28;20653;-55
2023/08/05 02:54:25;;;;;;;15.67;14.17;;;17.00;99.90;;;;;;5043104;28;20417;-53
2023/08/05 02:56:50;;;;;;;14.30;13.30;;;17.00;99.90;;;;;;5043467;28;20186;-57
2023/08/05 02:59:16;;;;;;;14.60;13.70;;;17.00;99.90;;;;;;5042893;28;20186;-56
2023/08/05 03:01:42;;;;;;;13.83;12.97;;;17.00;99.90;;;;;;5043266;28;20436;-54
2023/08/05 03:04:08;;;;;;;15.00;14.00;;;17.00;99.90;;;;;;5042949;28;21179;-57
2023/08/05 03:06:33;;;;;;;14.20;13.20;;;17.00;99.90;;;;;;5043151;28;20435;-55
2023/08/05 03:08:59;;;;;;;14.27;13.37;;;17.00;99.90;;;;;;5043267;28;20229;-54
2023/08/05 03:11:25;;;;;;;14.77;13.77;;;17.00;99.90;;;;;;5041585;28;20206;-53
2023/08/05 03:13:51;;;;;;;14.30;13.40;;;17.00;99.90;;;;;;5043387;28;20208;-50
2023/08/05 03:16:17;;;;;;;15.27;14.17;;;17.00;99.90;;;;;;5041947;28;20789;-55
2023/08/05 03:18:43;;;;;;;14.70;13.60;;;17.00;99.90;;;;;;5041443;28;20198;-55
2023/08/05 03:21:08;;;;;;;15.47;14.20;;;17.00;99.90;;;;;;5043060;28;20201;-55
2023/08/05 03:23:34;;;;;;;14.70;13.80;;;17.00;99.90;;;;;;5042567;28;20213;-53
2023/08/05 03:25:59;;;;;;;14.90;13.90;;;17.00;99.90;;;;;;5042565;28;21317;-55
2023/08/05 03:28:25;;;;;;;14.97;14.03;;;17.00;99.90;;;;;;5042241;28;20194;-52
2023/08/05 03:30:51;;;;;;;15.00;14.10;;;17.00;99.90;;;;;;5039624;28;20186;-56
2023/08/05 03:33:16;;;;;;;15.33;14.33;;;17.00;99.90;;;;;;5041515;28;20205;-55
2023/08/05 03:35:45;;;;;;;14.93;13.93;;;17.10;99.90;;;;;;5042371;28;20303;-56
2023/08/05 03:38:11;;;;;;;14.50;13.60;;;17.10;99.90;;;;;;5041818;28;20201;-54
2023/08/05 03:40:36;;;;;;;15.40;14.50;;;17.10;99.90;;;;;;5039962;28;20440;-56
2023/08/05 03:43:02;;;;;;;14.77;13.87;;;17.00;99.90;;;;;;5040980;28;20526;-57
2023/08/05 03:45:28;;;;;;;14.60;13.70;;;17.00;99.90;;;;;;5041303;28;20182;-54
2023/08/05 03:47:55;;;;;;;15.70;14.60;;;17.10;99.90;;;;;;5041281;28;20432;-57
2023/08/05 03:50:21;;;;;;;15.33;14.20;;;17.10;99.90;;;;;;5024281;28;20444;-56
2023/08/05 03:52:49;;;;;;;16.17;14.97;;;17.10;99.90;;;;;;5041731;28;20552;-52
2023/08/05 03:55:16;;;;;;;14.80;13.67;;;17.10;99.90;;;;;;5022489;28;20194;-57
2023/08/05 03:57:42;;;;;;;15.73;14.50;;;17.10;99.90;;;;;;5041304;28;20443;-54
2023/08/05 04:00:11;;;;;;;14.87;13.87;;;17.10;99.90;;;;;;5042108;28;20420;-56
2023/08/05 04:02:37;;;;;;;15.87;14.77;;;17.20;99.90;;;;;;5040522;28;20170;-55
2023/08/05 04:05:04;;;;;;;15.17;13.97;;;17.20;99.90;;;;;;5041310;28;20526;-56
2023/08/05 04:07:33;;;;;;;15.20;14.30;;;17.20;99.90;;;;;;5041145;28;20463;-56
2023/08/05 04:09:59;;;;;;;14.90;13.90;;;17.30;99.90;;;;;;5041556;28;20522;-55
2023/08/05 04:12:25;;;;;;;15.97;14.60;;;17.20;99.90;;;;;;5041937;28;20424;-50
2023/08/05 04:14:52;;;;;;;15.00;14.00;;;17.30;99.90;;;;;;5041823;28;21116;-53
2023/08/05 04:17:19;;;;;;;15.17;14.23;;;17.30;99.90;;;;;;5040761;28;20428;-54
2023/08/05 04:19:46;;;;;;;14.60;13.60;;;17.30;99.90;;;;;;5042067;28;20942;-56
2023/08/05 04:22:12;;;;;;;15.00;14.00;;;17.30;99.90;;;;;;5019416;28;20444;-48
2023/08/05 04:24:39;;;;;;;15.10;14.10;;;17.30;99.90;;;;;;5041272;28;20480;-55
2023/08/05 04:27:05;;;;;;;15.43;14.37;;;17.40;99.90;;;;;;5040459;28;20513;-55
2023/08/05 04:29:30;;;;;;;14.80;13.80;;;17.40;99.90;;;;;;5041592;28;21801;-57
2023/08/05 04:31:56;;;;;;;15.37;14.37;;;17.40;99.90;;;;;;5039460;28;20985;-56
2023/08/05 04:34:22;;;;;;;15.97;14.87;;;17.50;99.90;;;;;;5041193;28;20277;-52
2023/08/05 04:36:51;;;;;;;16.20;14.80;;;17.50;99.90;;;;;;5040816;28;20239;-54
2023/08/05 04:39:18;;;;;;;14.63;13.63;;;17.60;99.90;;;;;;5041058;28;20283;-54
2023/08/05 04:41:45;;;;;;;16.17;15.07;;;17.60;99.90;;;;;;5039289;28;20493;-51
2023/08/05 04:44:11;;;;;;;16.53;15.33;;;17.60;99.90;;;;;;5041057;28;20471;-55
2023/08/05 04:46:36;;;;;;;15.13;14.23;;;17.70;99.90;;;;;;5039685;28;20448;-56
2023/08/05 04:49:05;;;;;;;17.07;15.77;;;17.70;99.90;;;;;;5041416;28;20565;-56
2023/08/05 04:51:30;;;;;;;15.07;13.97;;;17.70;99.90;;;;;;5039326;28;20224;-56
2023/08/05 04:53:56;;;;;;;15.80;14.73;;;17.70;99.90;;;;;;5039108;28;21228;-54
2023/08/05 04:56:25;;;;;;;16.50;15.43;;;17.70;99.90;;;;;;5040498;28;20197;-54
2023/08/05 04:58:52;;;;;;;16.50;15.50;;;17.80;99.90;;;;;;5040091;28;20284;-55
2023/08/05 05:01:18;;;;;;;16.80;15.70;;;17.80;99.90;;;;;;5035053;28;20425;-57
2023/08/05 05:03:48;;;;;;;15.60;14.60;;;17.90;99.90;;;;;;5015528;28;20837;-55
2023/08/05 05:06:14;;;;;;;17.07;15.67;;;17.90;99.90;;;;;;5040309;28;20181;-53
2023/08/05 05:08:40;;;;;;;16.37;15.43;;;18.00;99.90;;;;;;5040826;28;20416;-55
2023/08/05 05:11:07;;;;;;;16.67;15.57;;;18.10;99.90;;;;;;5039610;28;20428;-56
2023/08/05 05:13:33;;;;;;;16.77;15.43;;;18.20;99.90;;;;;;5040310;28;20289;-54
2023/08/05 05:15:58;;;;;;;16.43;15.33;;;18.20;99.90;;;;;;5040300;28;21000;-52
2023/08/05 05:18:24;;;;;;;15.30;14.40;;;18.30;99.90;;;;;;5021177;28;20209;-50
2023/08/05 05:20:50;;;;;;;16.20;15.20;;;18.30;99.90;;;;;;5040580;28;20192;-56
2023/08/05 05:23:16;;;;;;;15.80;14.80;;;18.50;99.90;;;;;;5039349;28;20718;-54
2023/08/05 05:25:42;;;;;;;16.50;15.50;;;18.60;99.90;;;;;;5038316;28;20567;-54
2023/08/05 05:28:08;;;;;;;15.43;14.53;;;18.70;99.90;;;;;;5020047;28;20451;-57
2023/08/05 05:30:37;;;;;;;16.30;15.27;;;18.80;99.90;;;;;;5038647;28;20440;-55
2023/08/05 05:33:03;;;;;;;16.17;15.17;;;18.90;99.90;;;;;;5040525;28;21166;-57
2023/08/05 05:35:29;;;;;;;15.40;14.50;;;18.90;99.90;;;;;;5039496;28;20470;-54
2023/08/05 05:37:54;;;;;;;16.07;15.03;;;18.90;99.90;;;;;;5039684;28;20436;-54
2023/08/05 05:40:20;;;;;;;16.03;15.03;;;19.10;99.90;;;;;;5039722;28;20809;-55
2023/08/05 05:42:48;;;;;;;15.97;14.97;;;19.10;99.90;;;;;;5039757;28;20655;-57
2023/08/05 05:45:14;;;;;;;18.23;16.33;;;19.10;99.90;;;;;;5039409;28;20178;-56
2023/08/05 05:47:40;;;;;;;16.37;15.13;;;19.20;99.90;;;;;;5040628;28;20440;-53
2023/08/05 05:50:06;;;;;;;15.87;14.77;;;19.20;99.90;;;;;;5039455;28;20190;-57
2023/08/05 05:52:32;;;;;;;16.07;15.17;;;19.20;99.90;;;;;;5039894;28;20420;-55
2023/08/05 05:54:58;;;;;;;16.07;15.07;;;19.30;99.90;;;;;;5036801;28;20490;-57
2023/08/05 05:57:23;;;;;;;15.57;14.67;;;19.40;99.90;;;;;;5037562;28;20201;-56
2023/08/05 05:59:49;;;;;;;16.00;15.17;;;19.50;99.90;;;;;;5038294;28;20190;-55
2023/08/05 06:02:15;;;;;;;15.00;14.03;;;19.60;99.90;;;;;;5037534;28;20282;-55
2023/08/05 06:04:42;;;;;;;15.00;14.10;;;19.70;99.90;;;;;;5037070;28;20312;-54
2023/08/05 06:07:08;;;;;;;15.20;14.27;;;19.70;99.90;;;;;;5037933;28;20177;-56
2023/08/05 06:09:33;;;;;;;14.80;13.90;;;19.80;99.90;;;;;;5037257;28;20922;-56
2023/08/05 06:11:59;;;;;;;15.53;14.60;;;19.90;99.90;;;;;;5037131;28;20216;-52
2023/08/05 06:14:25;;;;;;;14.13;13.40;;;19.90;99.90;;;;;;5037554;28;20607;-56
2023/08/05 06:16:51;;;;;;;14.73;13.83;;;20.10;99.90;;;;;;5035995;28;20371;-55
2023/08/05 06:19:16;;;;;;;14.87;13.97;;;20.20;99.90;;;;;;5034704;28;20448;-55
2023/08/05 06:21:42;;;;;;;14.30;13.50;;;20.20;99.90;;;;;;5038766;28;20185;-55
2023/08/05 06:24:07;;;;;;;15.23;14.13;;;20.30;99.90;;;;;;5038309;28;20275;-56
2023/08/05 06:26:33;;;;;;;14.60;13.80;;;20.30;99.90;;;;;;5038841;28;20181;-53
2023/08/05 06:28:59;;;;;;;14.20;13.40;;;20.40;99.90;;;;;;5040033;28;20189;-55
2023/08/05 06:31:25;;;;;;;14.20;13.40;;;20.40;99.90;;;;;;5039656;28;20641;-52
2023/08/05 06:33:50;;;;;;;14.43;13.57;;;20.30;99.90;;;;;;5039546;28;20754;-53
2023/08/05 06:36:16;;;;;;;14.57;13.77;;;20.30;99.90;;;;;;5021036;28;20186;-52
2023/08/05 06:38:41;;;;;;;15.13;14.17;;;20.30;99.90;;;;;;5039703;28;20305;-52
2023/08/05 06:41:07;;;;;;;14.10;13.10;;;20.40;99.90;;;;;;5039067;28;20242;-55
2023/08/05 06:43:33;;;;;;;14.30;13.60;;;20.40;99.90;;;;;;5039617;28;20220;-56
2023/08/05 06:45:59;;;;;;;13.50;12.70;;;20.50;99.90;;;;;;5038874;28;20432;-55
2023/08/05 06:48:24;;;;;;;14.33;13.53;;;20.60;99.90;;;;;;5035986;28;20554;-47
2023/08/05 06:50:50;;;;;;;13.63;12.83;;;20.70;99.90;;;;;;5038039;28;20201;-52
2023/08/05 06:53:15;;;;;;;14.63;13.80;;;20.80;99.90;;;;;;5038875;28;20193;-54
2023/08/05 06:55:41;;;;;;;14.40;13.60;;;20.80;99.90;;;;;;5018338;28;20197;-56
2023/08/05 06:58:07;;;;;;;13.87;13.07;;;20.80;99.90;;;;;;5039617;28;20194;-54
2023/08/05 07:00:32;;;;;;;14.20;13.40;;;20.80;99.90;;;;;;5038101;28;20620;-56
2023/08/05 07:02:58;;;;;;;14.63;13.83;;;20.90;99.90;;;;;;5020742;28;20631;-50
2023/08/05 07:05:24;;;;;;;14.00;13.20;;;20.90;99.90;;;;;;5041098;28;20331;-59
2023/08/05 07:07:49;;;;;;;14.90;14.00;;;21.00;99.90;;;;;;5021032;28;20198;-56
2023/08/05 07:10:16;;;;;;;13.97;13.27;;;21.00;99.90;;;;;;5042115;28;20186;-54
2023/08/05 07:12:41;;;;;;;14.40;13.50;;;21.10;99.90;;;;;;5022234;28;20192;-54
2023/08/05 07:15:07;;;;;;;14.87;14.00;;;21.10;99.90;;;;;;5039663;28;20443;-55
2023/08/05 07:17:33;;;;;;;14.40;13.47;;;21.20;99.90;;;;;;5041517;28;20652;-56
2023/08/05 07:19:59;;;;;;;12.97;12.27;;;21.40;99.90;;;;;;5041452;28;20198;-51
2023/08/05 07:22:26;;;;;;;13.40;12.70;;;21.50;99.90;;;;;;5024334;28;20625;-52
2023/08/05 07:24:54;;;;;;;13.93;13.20;;;21.50;99.90;;;;;;5041805;28;20835;-54
2023/08/05 07:27:20;;;;;;;13.90;13.20;;;21.60;99.90;;;;;;5042194;28;20419;-39
2023/08/05 07:29:46;;;;;;;13.53;12.83;;;21.70;99.90;;;;;;5043010;28;20481;-39
2023/08/05 07:32:11;;;;;;;13.70;12.87;;;21.70;99.90;;;;;;5041520;28;20220;-42
2023/08/05 07:34:37;;;;;;;13.60;12.90;;;21.70;99.90;;;;;;5041608;28;20186;-39
2023/08/05 07:37:03;;;;;;;12.30;11.67;;;21.70;99.90;;;;;;5041558;28;20561;-53
2023/08/05 07:39:33;;;;;;;13.23;12.47;;;21.80;99.90;;;;;;5042515;28;20594;-56
2023/08/05 07:42:01;;;;;;;13.40;12.60;;;21.80;99.90;;;;;;5042841;28;20425;-53
2023/08/05 07:44:27;;;;;;;13.17;12.53;;;21.80;99.90;;;;;;5042502;28;20508;-52
2023/08/05 07:46:53;;;;;;;14.00;13.20;;;21.70;99.90;;;;;;5013398;28;20523;-47
2023/08/05 07:49:19;;;;;;;13.20;12.30;;;21.80;99.90;;;;;;5042434;28;20197;-51
2023/08/05 07:51:47;;;;;;;12.77;12.07;;;21.80;99.90;;;;;;5024764;28;20436;-54
2023/08/05 07:54:13;;;;;;;14.17;13.37;;;21.80;99.90;;;;;;5042528;28;20185;-56
2023/08/05 07:56:41;;;;;;;12.93;12.20;;;21.80;99.90;;;;;;5042106;28;20789;-52
2023/08/05 07:59:07;;;;;;;14.10;13.23;;;21.90;99.90;;;;;;5024816;28;20447;-54
2023/08/05 08:01:33;;;;;;;13.60;12.90;;;21.90;99.90;;;;;;5041616;28;20420;-55
2023/08/05 08:04:02;;;;;;;14.30;13.60;;;21.90;99.90;;;;;;5041930;28;20205;-48
2023/08/05 08:06:28;;;;;;;14.67;13.57;;;22.00;99.90;;;;;;5041962;28;20492;-54
2023/08/05 08:08:54;;;;;;;13.37;12.67;;;21.90;99.90;;;;;;5042347;28;20416;-54
2023/08/05 08:11:20;;;;;;;13.77;12.93;;;21.90;99.90;;;;;;5024109;28;20991;-54
2023/08/05 08:13:45;;;;;;;13.70;12.90;;;22.00;99.90;;;;;;5042207;28;20190;-55
2023/08/05 08:16:11;;;;;;;13.10;12.30;;;22.00;99.90;;;;;;5041082;28;20215;-54
2023/08/05 08:18:37;;;;;;;13.60;12.90;;;22.10;99.90;;;;;;5041967;28;20185;-53
2023/08/05 08:21:04;;;;;;;14.37;13.57;;;22.00;99.90;;;;;;5042171;28;20663;-45
2023/08/05 08:23:30;;;;;;;12.43;11.83;;;22.10;99.90;;;;;;5041599;28;20271;-43
2023/08/05 08:25:59;;;;;;;13.67;12.90;;;22.10;99.90;;;;;;5041897;28;20923;-45
2023/08/05 08:28:25;;;;;;;13.80;13.10;;;22.00;99.90;;;;;;5042184;28;20296;-41
2023/08/05 08:30:54;;;;;;;13.37;12.50;;;21.90;99.90;;;;;;5042663;28;21418;-40
2023/08/05 08:33:20;;;;;;;14.20;13.30;;;21.90;99.90;;;;;;5041828;28;20412;-40
2023/08/05 08:35:45;;;;;;;13.10;12.40;;;21.80;99.90;;;;;;5041438;28;20487;-41
2023/08/05 08:38:11;;;;;;;13.47;12.77;;;21.80;99.90;;;;;;5041411;28;20428;-40
2023/08/05 08:40:37;;;;;;;13.77;13.07;;;21.70;99.90;;;;;;5040425;28;20189;-41
2023/08/05 08:43:03;;;;;;;13.33;12.60;;;21.70;99.90;;;;;;5040621;28;20803;-42
2023/08/05 08:45:33;;;;;;;13.97;13.27;;;21.60;99.90;;;;;;5039897;28;20707;-41
2023/08/05 08:48:00;;;;;;;13.10;12.40;;;21.70;99.90;;;;;;5018000;28;20445;-41
2023/08/05 08:50:27;;;;;;;12.50;11.80;;;21.70;99.90;;;;;;5041094;28;20420;-40
2023/08/05 08:52:57;;;;;;;13.80;13.00;;;21.80;99.90;;;;;;5040919;28;20574;-42
2023/08/05 08:55:24;;;;;;;12.60;11.87;;;21.70;99.90;;;;;;5022586;28;20455;-41
2023/08/05 08:57:50;;;;;;;13.20;12.50;;;21.90;99.90;;;;;;5040469;28;20436;-40
2023/08/05 09:00:16;;;;;;;12.03;11.43;;;22.00;99.90;;;;;;5039716;28;20432;-43
2023/08/05 09:02:42;;;;;;;12.23;11.63;;;22.10;99.90;;;;;;5029368;28;20219;-44
2023/08/05 09:05:08;;;;;;;12.50;11.80;;;22.10;99.90;;;;;;5039704;28;20193;-40
2023/08/05 09:07:35;;;;;;;12.67;11.87;;;22.10;99.90;;;;;;5041127;28;21230;-40
2023/08/05 09:10:05;;;;;;;13.17;12.57;;;22.10;99.90;;;;;;5040240;28;20194;-41
2023/08/05 09:12:31;;;;;;;12.67;12.07;;;22.10;99.90;;;;;;5040463;28;20473;-43
2023/08/05 09:14:57;;;;;;;12.30;11.70;;;22.20;99.90;;;;;;5035580;28;20462;-40
2023/08/05 09:17:23;;;;;;;11.87;11.27;;;22.20;99.90;;;;;;5021533;28;21021;-43
2023/08/05 09:19:49;;;;;;;12.00;11.40;;;22.30;99.90;;;;;;5039984;28;20523;-44
2023/08/05 09:22:14;;;;;;;12.70;12.10;;;22.30;99.10;;;;;;5040494;28;20198;-45
2023/08/05 09:24:40;;;;;;;13.43;12.73;;;22.30;99.50;;;;;;5039641;28;20225;-41
2023/08/05 09:27:06;;;;;;;13.10;12.40;;;22.40;99.70;;;;;;5040227;28;20284;-41
2023/08/05 09:29:36;;;;;;;11.60;11.00;;;22.40;99.90;;;;;;5039127;28;20190;-42
2023/08/05 09:32:03;;;;;;;12.00;11.40;;;22.60;98.90;;;;;;5039486;28;20177;-41
2023/08/05 09:34:39;;;;;;;12.10;11.50;;;22.60;98.70;;;;;;5038910;28;20531;-46
2023/08/05 09:37:08;;;;;;;12.07;11.47;;;22.70;98.80;;;;;;5021726;28;20455;-42
2023/08/05 09:39:46;;;;;;;13.27;12.57;;;22.90;98.60;;;;;;5038549;28;20446;-45
2023/08/05 09:42:24;;;;;;;13.50;12.80;;;22.90;98.70;;;;;;5039573;28;20661;-40
2023/08/05 09:44:54;;;;;;;11.60;11.00;;;23.00;97.40;;;;;;5037979;28;20463;-41
2023/08/05 09:47:23;;;;;;;11.93;11.30;;;23.10;97.40;;;;;;5038577;28;20428;-40
2023/08/05 09:49:50;;;;;;;12.63;12.00;;;23.20;96.90;;;;;;5039742;28;20404;-40
2023/08/05 09:52:17;;;;;;;12.23;11.53;;;23.10;96.00;;;;;;5039953;28;20405;-43
2023/08/05 09:54:57;;;;;;;11.70;11.20;;;23.10;97.00;;;;;;5037373;28;20432;-42
2023/08/05 09:57:24;;;;;;;12.87;12.17;;;23.20;96.90;;;;;;5038092;28;20943;-41
2023/08/05 09:59:53;;;;;;;12.23;11.63;;;23.20;96.40;;;;;;5039617;28;20432;-46
2023/08/05 10:02:25;;;;;;;12.10;11.50;;;23.30;96.00;;;;;;5039771;28;20513;-43
2023/08/05 10:04:56;;;;;;;11.40;10.90;;;23.40;95.90;;;;;;5038783;28;20548;-41
2023/08/05 10:07:23;;;;;;;11.37;10.77;;;23.40;95.20;;;;;;5038738;28;20505;-40
2023/08/05 10:09:50;;;;;;;12.53;11.83;;;23.40;94.80;;;;;;5039122;28;20440;-43
2023/08/05 10:12:22;;;;;;;11.53;11.03;;;23.50;94.90;;;;;;5039115;28;20847;-42
2023/08/05 10:14:49;;;;;;;12.60;12.00;;;23.40;95.20;;;;;;5038686;28;20832;-41
2023/08/05 10:17:16;;;;;;;11.80;11.20;;;23.40;95.10;;;;;;5039143;28;20427;-42
2023/08/05 10:19:47;;;;;;;12.50;11.90;;;23.50;95.20;;;;;;5039389;28;20511;-41
2023/08/05 10:22:12;;;;;;;12.63;12.03;;;23.50;94.30;;;;;;5039856;28;20412;-41
2023/08/05 10:24:58;;;;;;;11.80;11.30;;;23.50;94.80;;;;;;5038649;28;20490;-43
2023/08/05 10:27:36;;;;;;;11.17;10.67;;;23.60;95.00;;;;;;5038714;28;20277;-43
2023/08/05 10:30:13;;;;;;;11.60;11.00;;;23.50;95.60;;;;;;5038568;28;20471;-44
2023/08/05 10:32:51;;;;;;;11.40;10.60;;;23.60;94.50;;;;;;5039322;28;20477;-44
2023/08/05 10:35:43;;;;;;;12.03;11.43;;;23.50;94.50;;;;;;5039097;28;20466;-42
2023/08/05 10:38:13;;;;;;;12.40;11.80;;;23.50;95.00;;;;;;5039718;28;20416;-43
2023/08/05 10:40:51;;;;;;;12.00;11.40;;;23.60;95.50;;;;;;5042932;28;20427;-42
2023/08/05 10:43:37;;;;;;;12.30;11.63;;;23.60;94.60;;;;;;5043785;28;20463;-42
2023/08/05 10:46:05;;;;;;;11.70;11.20;;;23.70;94.30;;;;;;5043951;28;20424;-42
2023/08/05 10:48:38;;;;;;;11.70;11.20;;;23.60;94.40;;;;;;5043942;28;20852;-53
2023/08/05 10:51:09;;;;;;;12.60;11.80;;;23.70;94.90;;;;;;5043600;28;20431;-53
2023/08/05 10:53:35;;;;;;;11.87;11.30;;;23.80;95.30;;;;;;5042647;28;20524;-52
2023/08/05 10:56:01;;;;;;;12.63;11.93;;;23.80;94.00;;;;;;5043201;28;20447;-53
2023/08/05 10:58:34;;;;;;;11.67;11.17;;;23.80;93.40;;;;;;5025777;28;20551;-55
2023/08/05 11:01:02;;;;;;;12.53;11.83;;;23.90;93.50;;;;;;5043657;28;20497;-55
2023/08/05 11:03:31;;;;;;;11.87;11.17;;;23.90;93.80;;;;;;5043162;28;20878;-55
2023/08/05 11:06:04;;;;;;;11.90;11.30;;;24.00;93.60;;;;;;5043300;28;20453;-52
2023/08/05 11:08:32;;;;;;;11.70;11.20;;;24.10;93.50;;;;;;5043322;28;20975;-52
2023/08/05 11:11:06;;;;;;;11.13;10.63;;;24.10;92.80;;;;;;5043455;28;20412;-54
2023/08/05 11:13:34;;;;;;;12.53;11.93;;;24.10;92.80;;;;;;5043465;28;20782;-56
2023/08/05 11:16:01;;;;;;;11.23;10.73;;;24.20;93.90;;;;;;5041315;28;20436;-54
2023/08/05 11:18:26;;;;;;;11.63;11.13;;;24.30;93.00;;;;;;5043016;28;20450;-52
2023/08/05 11:20:52;;;;;;;11.60;11.03;;;24.40;93.40;;;;;;5025120;28;20428;-52
2023/08/05 11:23:17;;;;;;;11.03;10.53;;;24.50;92.40;;;;;;5043490;28;20205;-53
2023/08/05 11:25:47;;;;;;;10.97;10.43;;;24.60;92.10;;;;;;5042322;28;20240;-50
2023/08/05 11:28:12;;;;;;;10.40;10.00;;;24.60;91.10;;;;;;5043321;28;20185;-42
2023/08/05 11:30:39;;;;;;;11.70;11.10;;;24.70;91.60;;;;;;5043162;28;20412;-43
2023/08/05 11:33:05;;;;;;;11.73;11.13;;;24.70;91.20;;;;;;5042998;28;20572;-43
2023/08/05 11:35:31;;;;;;;11.60;11.10;;;24.70;91.20;;;;;;5043248;28;20420;-44
2023/08/05 11:37:57;;;;;;;11.83;11.23;;;24.80;91.20;;;;;;5043109;28;20422;-40
2023/08/05 11:40:27;;;;;;;10.00;9.60;;;24.80;90.70;;;;;;5042118;28;20821;-43
2023/08/05 11:42:52;;;;;;;11.47;10.97;;;24.90;90.00;;;;;;5042582;28;20888;-43
2023/08/05 11:45:18;;;;;;;10.80;10.30;;;25.00;90.10;;;;;;5042913;28;20420;-43
2023/08/05 11:47:45;;;;;;;11.43;10.93;;;24.90;89.90;;;;;;5024631;28;20935;-41
2023/08/05 11:50:12;;;;;;;11.40;10.90;;;24.90;90.00;;;;;;5024341;28;20927;-44
2023/08/05 11:52:39;;;;;;;10.60;10.10;;;24.90;89.20;;;;;;5042079;28;20436;-46
2023/08/05 11:55:07;;;;;;;12.53;11.93;;;24.90;88.30;;;;;;5020277;28;20435;-43
2023/08/05 11:57:33;;;;;;;11.57;11.07;;;24.80;89.10;;;;;;5024143;28;20420;-45
2023/08/05 12:00:08;;;;;;;11.60;11.10;;;24.80;87.90;;;;;;5024245;28;20432;-45
2023/08/05 12:02:34;;;;;;;11.80;11.20;;;24.80;89.70;;;;;;5042392;28;20427;-47
2023/08/05 12:05:00;;;;;;;11.23;10.73;;;24.80;90.00;;;;;;5042096;28;20479;-44
2023/08/05 12:07:26;;;;;;;11.00;10.50;;;24.80;88.50;;;;;;5042349;28;20435;-45
2023/08/05 12:10:12;;;;;;;10.93;10.43;;;24.70;87.00;;;;;;5023500;28;20823;-56
2023/08/05 12:12:38;;;;;;;10.73;10.23;;;24.70;87.10;;;;;;5042063;28;20204;-53
2023/08/05 12:15:24;;;;;;;10.33;9.93;;;24.70;84.90;;;;;;5024011;28;20424;-56
2023/08/05 12:17:55;;;;;;;11.00;10.50;;;24.70;83.20;;;;;;5042383;28;20413;-52
2023/08/05 12:20:27;;;;;;;10.13;9.67;;;24.70;82.50;;;;;;5042107;28;20481;-42
2023/08/05 12:22:54;;;;;;;11.27;10.77;;;24.60;82.70;;;;;;5041221;28;20420;-43
2023/08/05 12:25:20;;;;;;;10.33;9.83;;;24.60;82.40;;;;;;5023697;28;20494;-41
2023/08/05 12:27:46;;;;;;;11.17;10.67;;;24.50;83.10;;;;;;5042219;28;20562;-42